« Back
NWS Peachtree City, Ga » Text Product » MCN Terminal Aerodrome Forecast


Printer-friendly Version
Current Version              Previous Versions:   1  2  3  4  5  6  7  8  9  

Terminal Aerodrome Forecast

518
FTUS42 KFFC 232320
TAFMCN
TAF
KMCN 232320Z 2400/2424 27009KT P6SM FEW060
     FM240100 25004KT P6SM SKC
     FM241500 27008KT P6SM FEW060=

USA.gov is the U.S. government's official web portal to all federal, state and local government web resources and services.